createdAt,value
2023-03-30T00:01:01.686Z,5.40
2023-03-30T00:03:28.585Z,5.67
2023-03-30T00:05:56.133Z,5.20
2023-03-30T00:08:27.476Z,5.10
2023-03-30T00:11:03.167Z,5.43
2023-03-30T00:13:30.859Z,5.07
2023-03-30T00:15:57.830Z,6.50
2023-03-30T00:18:24.315Z,6.03
2023-03-30T00:20:52.724Z,5.83
2023-03-30T00:23:20.043Z,5.17
2023-03-30T00:25:46.629Z,4.90
2023-03-30T00:28:13.319Z,5.33
2023-03-30T00:30:39.844Z,5.37
2023-03-30T00:33:06.396Z,6.27
2023-03-30T00:35:33.033Z,6.50
2023-03-30T00:38:05.111Z,5.40
2023-03-30T00:40:34.046Z,5.23
2023-03-30T00:43:10.607Z,5.20
2023-03-30T00:45:37.463Z,5.00
2023-03-30T00:48:14.646Z,4.83
2023-03-30T00:51:09.891Z,5.23
2023-03-30T00:53:46.460Z,5.23
2023-03-30T00:56:18.536Z,5.27
2023-03-30T00:58:45.908Z,5.10
2023-03-30T01:01:24.715Z,5.57
2023-03-30T01:03:53.016Z,5.47
2023-03-30T01:06:23.553Z,5.40
2023-03-30T01:08:54.298Z,5.23
2023-03-30T01:11:20.869Z,5.27
2023-03-30T01:13:52.326Z,5.37
2023-03-30T01:18:58.750Z,5.03
2023-03-30T01:25:33.599Z,4.67
2023-03-30T01:31:14.243Z,4.53
2023-03-30T01:40:12.424Z,4.77
2023-03-30T01:42:57.825Z,7.00
2023-03-30T01:47:23.128Z,7.50
2023-03-30T01:50:36.500Z,7.00
2023-03-30T01:53:22.731Z,4.70
2023-03-30T01:56:09.765Z,4.60
2023-03-30T01:58:49.277Z,5.10
2023-03-30T02:01:19.873Z,4.77
2023-03-30T02:03:54.157Z,4.87
2023-03-30T02:06:37.918Z,6.03
2023-03-30T02:09:08.691Z,5.27
2023-03-30T02:11:40.226Z,5.47
2023-03-30T02:14:10.179Z,5.10
2023-03-30T02:16:56.158Z,5.33
2023-03-30T02:19:22.713Z,5.33
2023-03-30T02:21:49.789Z,5.63
2023-03-30T02:24:24.106Z,4.87
2023-03-30T02:26:53.686Z,4.40
2023-03-30T02:29:22.145Z,4.87
2023-03-30T02:31:54.152Z,5.10
2023-03-30T02:39:27.006Z,5.57
2023-03-30T02:44:16.925Z,4.87
2023-03-30T02:50:10.981Z,4.20
2023-03-30T02:53:11.457Z,4.33
2023-03-30T02:58:15.331Z,5.17
2023-03-30T03:01:42.118Z,4.63
2023-03-30T03:04:11.014Z,4.60
2023-03-30T03:06:38.361Z,4.70
2023-03-30T03:09:05.058Z,5.00
2023-03-30T03:11:31.511Z,5.20
2023-03-30T03:13:58.657Z,4.60
2023-03-30T03:16:25.155Z,4.10
2023-03-30T03:18:51.864Z,5.40
2023-03-30T03:21:18.350Z,5.00
2023-03-30T03:23:47.502Z,5.37
2023-03-30T03:26:14.185Z,5.13
2023-03-30T03:28:40.644Z,4.70
2023-03-30T03:31:07.868Z,5.17
2023-03-30T03:33:34.593Z,4.53
2023-03-30T03:36:01.151Z,5.10
2023-03-30T03:38:28.601Z,4.93
2023-03-30T03:40:58.559Z,5.00
2023-03-30T03:43:25.340Z,4.90
2023-03-30T03:45:52.858Z,4.73
2023-03-30T03:48:22.383Z,4.47
2023-03-30T03:50:57.809Z,4.53
2023-03-30T03:53:26.984Z,5.47
2023-03-30T03:55:53.982Z,4.83
2023-03-30T03:58:21.597Z,4.53
2023-03-30T04:00:48.658Z,4.17
2023-03-30T04:03:15.595Z,3.97
2023-03-30T04:05:42.453Z,4.30
2023-03-30T04:08:09.989Z,4.80
2023-03-30T04:10:41.069Z,4.10
2023-03-30T04:13:07.586Z,4.10
2023-03-30T04:15:35.299Z,4.40
2023-03-30T04:18:05.889Z,3.90
2023-03-30T04:20:32.456Z,4.13
2023-03-30T04:23:01.034Z,5.90
2023-03-30T04:25:28.236Z,4.77
2023-03-30T04:27:56.310Z,5.67
2023-03-30T04:30:23.652Z,5.27
2023-03-30T04:33:02.479Z,4.73
2023-03-30T04:35:32.118Z,3.90
2023-03-30T04:37:59.654Z,4.07
2023-03-30T04:40:26.255Z,4.13
2023-03-30T04:42:52.780Z,4.23
2023-03-30T04:45:19.985Z,4.43
2023-03-30T04:47:46.758Z,4.80
2023-03-30T04:50:13.998Z,5.27
2023-03-30T04:52:40.673Z,5.73
2023-03-30T04:55:09.132Z,5.00
2023-03-30T04:57:35.632Z,4.73
2023-03-30T05:00:06.789Z,4.80
2023-03-30T05:02:33.509Z,4.23
2023-03-30T05:05:00.150Z,4.30
2023-03-30T05:07:26.696Z,4.40
2023-03-30T05:09:53.211Z,4.40
2023-03-30T05:12:20.850Z,5.00
2023-03-30T05:14:47.368Z,4.63
2023-03-30T05:17:13.924Z,4.67
2023-03-30T05:19:40.474Z,4.37
2023-03-30T05:22:06.992Z,4.27
2023-03-30T05:24:33.716Z,4.20
2023-03-30T05:27:01.511Z,4.67
2023-03-30T05:29:27.975Z,4.67
2023-03-30T05:31:54.460Z,4.73
2023-03-30T05:34:20.923Z,5.77
2023-03-30T05:36:47.440Z,5.30
2023-03-30T05:39:14.502Z,4.73
2023-03-30T05:41:40.995Z,4.47
2023-03-30T05:44:07.581Z,4.27
2023-03-30T05:46:34.119Z,4.37
2023-03-30T05:49:00.658Z,5.30
2023-03-30T05:51:27.167Z,5.97
2023-03-30T05:53:53.657Z,6.50
2023-03-30T05:56:20.700Z,6.60
2023-03-30T05:58:47.215Z,8.10
2023-03-30T06:01:13.715Z,8.97
2023-03-30T06:03:41.325Z,6.93
2023-03-30T06:06:08.735Z,6.30
2023-03-30T06:08:35.333Z,7.03
2023-03-30T06:11:02.164Z,5.90
2023-03-30T06:13:28.874Z,5.30
2023-03-30T06:15:55.884Z,5.80
2023-03-30T06:18:22.440Z,6.00
2023-03-30T06:20:49.795Z,3.83
2023-03-30T06:23:16.564Z,4.97
2023-03-30T06:25:51.666Z,6.13
2023-03-30T06:28:22.021Z,5.10
2023-03-30T06:30:48.962Z,4.70
2023-03-30T06:33:17.673Z,3.90
2023-03-30T06:35:53.495Z,5.90
2023-03-30T06:38:22.579Z,7.40
2023-03-30T06:40:50.240Z,6.57
2023-03-30T06:43:21.037Z,6.57
2023-03-30T06:45:56.551Z,6.13
2023-03-30T06:48:23.941Z,5.27
2023-03-30T06:50:54.576Z,5.43
2023-03-30T06:53:23.115Z,6.43
2023-03-30T06:55:56.433Z,6.97
2023-03-30T06:58:25.148Z,6.43
2023-03-30T07:00:51.909Z,7.23
2023-03-30T07:03:19.371Z,6.97
2023-03-30T07:05:52.533Z,6.90
2023-03-30T07:08:20.547Z,7.60
2023-03-30T07:10:48.125Z,7.73
2023-03-30T07:13:16.181Z,6.97
2023-03-30T07:15:45.261Z,6.80
2023-03-30T07:18:12.198Z,7.40
2023-03-30T07:20:38.967Z,7.20
2023-03-30T07:23:06.453Z,7.80
2023-03-30T07:25:32.953Z,8.40
2023-03-30T07:27:59.425Z,9.30
2023-03-30T07:30:26.736Z,8.77
2023-03-30T07:32:55.511Z,10.23
2023-03-30T07:35:23.998Z,12.03
2023-03-30T07:37:51.283Z,11.07
2023-03-30T07:40:18.996Z,8.07
2023-03-30T07:42:46.787Z,8.07
2023-03-30T07:45:16.281Z,6.60
2023-03-30T07:47:43.231Z,6.70
2023-03-30T07:50:10.304Z,7.53
2023-03-30T07:52:37.279Z,7.13
2023-03-30T07:55:04.560Z,6.70
2023-03-30T07:57:31.438Z,8.10
2023-03-30T07:59:58.027Z,7.27
2023-03-30T08:02:24.525Z,6.97
2023-03-30T08:04:52.075Z,6.93
2023-03-30T08:07:18.623Z,6.50
2023-03-30T08:09:45.212Z,6.20
2023-03-30T08:12:11.725Z,6.47
2023-03-30T08:14:38.220Z,6.83
2023-03-30T08:17:04.732Z,6.90
2023-03-30T08:19:31.312Z,6.50
2023-03-30T08:21:58.567Z,7.23
2023-03-30T08:24:25.040Z,7.60
2023-03-30T08:26:51.543Z,7.03
2023-03-30T08:29:18.130Z,6.30
2023-03-30T08:31:44.878Z,6.00
2023-03-30T08:34:11.437Z,6.20
2023-03-30T08:36:38.016Z,6.27
2023-03-30T08:39:04.807Z,5.80
2023-03-30T08:45:04.571Z,6.40
2023-03-30T08:47:38.011Z,5.10
2023-03-30T08:52:05.113Z,5.90
2023-03-30T08:54:33.192Z,5.70
2023-03-30T09:01:10.642Z,5.00
2023-03-30T09:06:21.655Z,4.17
2023-03-30T09:08:49.589Z,5.33
2023-03-30T09:11:30.017Z,4.80
2023-03-30T09:14:00.917Z,5.00
2023-03-30T09:16:50.594Z,4.83
2023-03-30T09:19:30.594Z,4.63
2023-03-30T09:22:01.769Z,4.93
2023-03-30T09:24:29.133Z,4.50
2023-03-30T09:29:02.960Z,4.80
2023-03-30T09:32:11.729Z,4.47
2023-03-30T09:35:04.120Z,3.83
2023-03-30T09:37:30.725Z,4.55
2023-03-30T09:39:58.386Z,4.68
2023-03-30T09:43:56.306Z,4.80
2023-03-30T09:46:22.775Z,5.50
2023-03-30T09:48:50.664Z,4.90
2023-03-30T09:51:29.205Z,5.17
2023-03-30T09:54:05.847Z,4.90
2023-03-30T09:56:46.151Z,4.78
2023-03-30T09:59:36.360Z,5.18
2023-03-30T10:02:19.544Z,4.70
2023-03-30T10:05:00.154Z,5.75
2023-03-30T10:07:37.010Z,5.57
2023-03-30T10:11:45.596Z,5.67
2023-03-30T10:14:45.354Z,6.13
2023-03-30T10:17:25.320Z,5.63
2023-03-30T10:20:14.195Z,6.43
2023-03-30T10:23:04.090Z,6.18
2023-03-30T10:25:33.151Z,5.63
2023-03-30T10:28:15.136Z,5.17
2023-03-30T10:30:48.667Z,5.10
2023-03-30T10:33:15.508Z,4.82
2023-03-30T10:35:42.148Z,4.65
2023-03-30T10:38:12.804Z,4.28
2023-03-30T10:40:43.304Z,4.65
2023-03-30T10:43:24.555Z,5.30
2023-03-30T10:46:01.499Z,5.05
2023-03-30T10:51:49.181Z,4.97
2023-03-30T10:54:36.104Z,4.43
2023-03-30T10:57:20.375Z,4.90
2023-03-30T11:01:03.583Z,4.95
2023-03-30T11:03:32.432Z,4.70
2023-03-30T11:06:20.268Z,4.55
2023-03-30T11:08:51.107Z,5.37
2023-03-30T11:11:48.234Z,4.70
2023-03-30T11:16:16.180Z,3.65
2023-03-30T11:19:03.280Z,3.58
2023-03-30T11:22:45.897Z,3.90
2023-03-30T11:25:29.569Z,3.47
2023-03-30T11:28:14.898Z,3.80
2023-03-30T11:30:43.556Z,3.63
2023-03-30T11:33:35.880Z,3.22
2023-03-30T11:36:18.761Z,3.43
2023-03-30T11:39:00.141Z,3.30
2023-03-30T11:41:44.031Z,3.23
2023-03-30T11:44:12.287Z,3.43
2023-03-30T11:50:04.387Z,3.42
2023-03-30T11:53:58.135Z,3.27
2023-03-30T12:00:01.158Z,3.27
2023-03-30T12:04:31.130Z,3.53
2023-03-30T12:07:04.375Z,3.97
2023-03-30T12:10:00.136Z,4.10
2023-03-30T12:12:38.426Z,4.15
2023-03-30T12:17:46.238Z,3.80
2023-03-30T12:23:07.087Z,4.35
2023-03-30T12:27:15.458Z,3.90
2023-03-30T12:32:28.244Z,4.07
2023-03-30T12:34:57.547Z,4.35
2023-03-30T12:37:37.286Z,3.95
2023-03-30T12:40:21.488Z,3.30
2023-03-30T12:44:39.661Z,3.65
2023-03-30T12:50:57.884Z,4.10
2023-03-30T12:54:00.103Z,3.95
2023-03-30T12:58:51.005Z,4.20
2023-03-30T13:02:02.147Z,4.22
2023-03-30T13:04:37.008Z,4.32
2023-03-30T13:07:13.127Z,4.43
2023-03-30T13:10:32.227Z,4.32
2023-03-30T13:13:02.472Z,4.40
2023-03-30T13:15:53.980Z,4.50
2023-03-30T13:18:50.771Z,3.60
2023-03-30T13:21:23.975Z,4.45
2023-03-30T13:24:35.701Z,3.43
2023-03-30T13:29:16.318Z,3.62
2023-03-30T13:34:34.857Z,4.03
2023-03-30T13:40:35.178Z,4.60
2023-03-30T13:44:32.677Z,4.43
2023-03-30T13:47:56.944Z,5.03
2023-03-30T13:50:30.583Z,5.30
2023-03-30T13:53:02.333Z,4.80
2023-03-30T13:55:38.729Z,5.18
2023-03-30T13:58:16.953Z,4.65
2023-03-30T14:00:56.113Z,4.75
2023-03-30T14:03:53.060Z,5.82
2023-03-30T14:06:22.074Z,4.95
2023-03-30T14:08:58.217Z,5.53
2023-03-30T14:11:52.613Z,5.32
2023-03-30T14:15:25.097Z,5.05
2023-03-30T14:17:57.227Z,5.18
2023-03-30T14:20:56.074Z,5.65
2023-03-30T14:23:44.154Z,5.45
2023-03-30T14:26:23.407Z,5.70
2023-03-30T14:28:59.247Z,5.25
2023-03-30T14:31:28.863Z,5.70
2023-03-30T14:33:55.380Z,5.00
2023-03-30T14:36:22.893Z,4.70
2023-03-30T14:38:52.612Z,4.93
2023-03-30T14:41:28.060Z,5.70
2023-03-30T14:44:07.327Z,5.45
2023-03-30T14:46:50.671Z,4.65
2023-03-30T14:49:28.149Z,5.65
2023-03-30T14:52:15.766Z,5.80
2023-03-30T14:54:54.274Z,5.72
2023-03-30T14:57:29.767Z,5.45
2023-03-30T15:00:01.503Z,6.28
2023-03-30T15:02:33.434Z,6.80
2023-03-30T15:05:00.156Z,6.32
2023-03-30T15:07:31.549Z,5.95
2023-03-30T15:10:00.027Z,5.80
2023-03-30T15:12:38.561Z,6.10
2023-03-30T15:15:14.510Z,6.70
2023-03-30T15:17:49.128Z,6.53
2023-03-30T15:20:16.913Z,6.72
2023-03-30T15:22:51.087Z,7.05
2023-03-30T15:25:22.279Z,6.70
2023-03-30T15:28:00.540Z,7.20
2023-03-30T15:30:34.382Z,6.62
2023-03-30T15:33:01.673Z,7.60
2023-03-30T15:35:32.988Z,6.80
2023-03-30T15:38:16.046Z,6.87
2023-03-30T15:40:49.376Z,6.47
2023-03-30T15:43:28.755Z,6.97
2023-03-30T15:46:12.622Z,6.47
2023-03-30T15:48:48.387Z,6.95
2023-03-30T15:51:38.032Z,6.90
2023-03-30T15:54:15.862Z,6.97
2023-03-30T15:57:29.619Z,6.62
2023-03-30T16:00:04.699Z,6.35
2023-03-30T16:02:56.981Z,7.30
2023-03-30T16:05:26.819Z,6.23
2023-03-30T16:07:54.098Z,7.03
2023-03-30T16:10:29.423Z,6.47
2023-03-30T16:13:00.572Z,6.83
2023-03-30T16:15:31.079Z,6.68
2023-03-30T16:17:57.796Z,7.53
2023-03-30T16:20:31.135Z,6.05
2023-03-30T16:22:57.858Z,7.05
2023-03-30T16:25:38.322Z,6.93
2023-03-30T16:28:16.644Z,6.70
2023-03-30T16:30:47.316Z,6.15
2023-03-30T16:33:13.876Z,7.00
2023-03-30T16:35:40.610Z,6.35
2023-03-30T16:38:09.079Z,6.70
2023-03-30T16:40:43.244Z,8.63
2023-03-30T16:43:10.182Z,7.00
2023-03-30T16:45:36.721Z,8.23
2023-03-30T16:48:03.910Z,9.93
2023-03-30T16:50:40.747Z,8.45
2023-03-30T16:53:09.012Z,9.93
2023-03-30T16:55:36.421Z,9.30
2023-03-30T16:58:04.816Z,9.40
2023-03-30T17:00:39.091Z,9.27
2023-03-30T17:03:05.877Z,7.68
2023-03-30T17:05:32.709Z,7.00
2023-03-30T17:08:27.263Z,7.43
2023-03-30T17:11:00.051Z,7.10
2023-03-30T17:13:27.377Z,6.97
2023-03-30T17:16:00.195Z,6.03
2023-03-30T17:18:27.342Z,6.37
2023-03-30T17:20:59.049Z,5.47
2023-03-30T17:23:28.687Z,5.30
2023-03-30T17:25:58.211Z,6.20
2023-03-30T17:28:34.253Z,5.63
2023-03-30T17:31:04.376Z,6.57
2023-03-30T17:33:31.521Z,5.20
2023-03-30T17:36:06.285Z,5.23
2023-03-30T17:38:32.967Z,4.77
2023-03-30T17:40:59.587Z,6.03
2023-03-30T17:43:26.063Z,4.50
2023-03-30T17:45:52.621Z,4.90
2023-03-30T17:48:21.355Z,3.97
2023-03-30T17:50:50.250Z,4.23
2023-03-30T17:53:19.448Z,5.00
2023-03-30T17:55:49.578Z,5.80
2023-03-30T17:58:33.274Z,5.93
2023-03-30T18:01:02.793Z,6.37
2023-03-30T18:03:30.528Z,7.33
2023-03-30T18:05:59.551Z,6.03
2023-03-30T18:08:27.319Z,6.73
2023-03-30T18:10:56.553Z,6.80
2023-03-30T18:13:25.612Z,5.77
2023-03-30T18:15:55.078Z,5.00
2023-03-30T18:18:28.909Z,4.73
2023-03-30T18:20:58.682Z,4.80
2023-03-30T18:23:25.179Z,4.07
2023-03-30T18:25:51.907Z,4.10
2023-03-30T18:28:22.410Z,4.63
2023-03-30T18:30:50.315Z,3.70
2023-03-30T18:33:16.915Z,3.97
2023-03-30T18:35:47.005Z,4.23
2023-03-30T18:38:17.360Z,3.53
2023-03-30T18:40:48.508Z,4.50
2023-03-30T18:43:16.194Z,4.33
2023-03-30T18:45:47.268Z,4.33
2023-03-30T18:48:17.715Z,4.43
2023-03-30T18:50:47.734Z,5.20
2023-03-30T18:53:18.164Z,4.43
2023-03-30T18:55:48.509Z,5.13
2023-03-30T18:58:22.454Z,5.40
2023-03-30T19:00:51.487Z,5.03
2023-03-30T19:03:20.911Z,5.10
2023-03-30T19:05:50.107Z,4.60
2023-03-30T19:08:20.093Z,4.60
2023-03-30T19:10:50.412Z,5.10
2023-03-30T19:13:19.677Z,5.00
2023-03-30T19:15:48.317Z,4.63
2023-03-30T19:18:17.010Z,4.57
2023-03-30T19:20:43.959Z,4.47
2023-03-30T19:23:14.438Z,4.03
2023-03-30T19:25:42.714Z,4.80
2023-03-30T19:28:10.272Z,4.80
2023-03-30T19:30:39.629Z,5.37
2023-03-30T19:33:11.137Z,4.47
2023-03-30T19:35:40.581Z,4.10
2023-03-30T19:38:07.234Z,4.90
2023-03-30T19:40:33.723Z,11.37
2023-03-30T19:43:00.195Z,9.97
2023-03-30T19:45:26.669Z,9.47
2023-03-30T19:47:53.308Z,6.47
2023-03-30T19:50:22.472Z,6.37
2023-03-30T19:52:50.268Z,6.13
2023-03-30T19:55:20.624Z,5.60
2023-03-30T19:57:47.341Z,5.43
2023-03-30T20:00:16.947Z,5.50
2023-03-30T20:02:47.087Z,5.70
2023-03-30T20:05:14.630Z,5.17
2023-03-30T20:07:43.264Z,5.27
2023-03-30T20:10:14.305Z,5.00
2023-03-30T20:12:40.949Z,5.00
2023-03-30T20:15:08.931Z,5.40
2023-03-30T20:17:36.070Z,4.43
2023-03-30T20:20:07.983Z,4.77
2023-03-30T20:22:36.548Z,4.63
2023-03-30T20:25:06.579Z,4.80
2023-03-30T20:27:33.528Z,5.77
2023-03-30T20:30:01.266Z,5.83
2023-03-30T20:32:27.941Z,5.53
2023-03-30T20:34:54.512Z,5.43
2023-03-30T20:37:20.996Z,5.23
2023-03-30T20:39:49.184Z,5.33
2023-03-30T20:42:17.262Z,4.73
2023-03-30T20:44:49.241Z,4.23
2023-03-30T20:47:17.130Z,4.30
2023-03-30T20:49:44.525Z,4.30
2023-03-30T20:52:11.872Z,4.23
2023-03-30T20:54:38.695Z,4.10
2023-03-30T20:57:05.414Z,4.00
2023-03-30T20:59:32.049Z,4.37
2023-03-30T21:01:58.594Z,4.00
2023-03-30T21:04:26.734Z,3.80
2023-03-30T21:06:53.365Z,4.13
2023-03-30T21:09:19.836Z,3.90
2023-03-30T21:11:46.536Z,3.67
2023-03-30T21:14:13.952Z,3.73
2023-03-30T21:16:43.817Z,3.27
2023-03-30T21:19:11.469Z,3.63
2023-03-30T21:21:38.410Z,3.63
2023-03-30T21:24:08.063Z,3.20
2023-03-30T21:26:34.784Z,3.50
2023-03-30T21:29:01.310Z,4.00
2023-03-30T21:31:27.859Z,3.87
2023-03-30T21:33:54.379Z,3.50
2023-03-30T21:36:21.054Z,3.20
2023-03-30T21:38:47.600Z,3.13
2023-03-30T21:41:20.557Z,3.07
2023-03-30T21:43:47.630Z,3.37
2023-03-30T21:46:18.925Z,3.53
2023-03-30T21:48:47.308Z,3.23
2023-03-30T21:51:24.925Z,2.90
2023-03-30T21:53:52.671Z,3.40
2023-03-30T21:56:25.560Z,3.20
2023-03-30T21:58:53.176Z,3.00
2023-03-30T22:01:25.266Z,3.33
2023-03-30T22:03:53.823Z,3.50
2023-03-30T22:06:21.675Z,3.37
2023-03-30T22:08:48.228Z,3.50
2023-03-30T22:11:24.095Z,3.63
2023-03-30T22:13:51.542Z,3.27
2023-03-30T22:16:27.488Z,3.43
2023-03-30T22:18:54.560Z,3.23
2023-03-30T22:21:25.101Z,3.67
2023-03-30T22:23:53.958Z,3.53
2023-03-30T22:26:21.534Z,3.37
2023-03-30T22:28:48.058Z,3.20
2023-03-30T22:31:15.402Z,3.40
2023-03-30T22:33:43.063Z,3.20
2023-03-30T22:36:22.447Z,3.63
2023-03-30T22:38:50.784Z,3.37
2023-03-30T22:41:22.856Z,3.73
2023-03-30T22:43:51.233Z,3.40
2023-03-30T22:46:17.792Z,3.40
2023-03-30T22:48:44.482Z,3.27
2023-03-30T22:51:13.861Z,4.47
2023-03-30T22:53:40.823Z,2.97
2023-03-30T22:56:07.881Z,2.87
2023-03-30T22:58:35.576Z,3.27
2023-03-30T23:01:06.179Z,5.57
2023-03-30T23:03:33.063Z,3.57
2023-03-30T23:06:00.998Z,3.50
2023-03-30T23:08:31.064Z,3.50
2023-03-30T23:11:03.380Z,3.83
2023-03-30T23:13:31.111Z,3.90
2023-03-30T23:15:58.780Z,3.07
2023-03-30T23:18:25.272Z,3.57
2023-03-30T23:20:54.911Z,3.57
2023-03-30T23:23:21.369Z,2.97
2023-03-30T23:25:49.414Z,3.50
2023-03-30T23:28:16.635Z,3.50
2023-03-30T23:30:46.391Z,3.27
2023-03-30T23:33:13.092Z,3.60
2023-03-30T23:35:42.609Z,6.07
2023-03-30T23:38:09.731Z,4.27
2023-03-30T23:40:36.201Z,3.30
2023-03-30T23:43:02.692Z,3.40
2023-03-30T23:45:29.170Z,3.30
2023-03-30T23:47:55.834Z,3.50
2023-03-30T23:50:22.358Z,3.33
2023-03-30T23:52:48.853Z,3.20
2023-03-30T23:55:17.669Z,3.87
2023-03-30T23:57:44.823Z,3.30
